Time;durP1;ratioP1;P1;durP2;ratioP2;P2;SDS_P1;SDS_P2;PMS_P1;PMS_P2;Temp;Humidity;BMP_temperature;BMP_pressure;BME280_temperature;BME280_humidity;BME280_pressure;Samples;Min_cycle;Max_cycle;Signal;HPM_P1;HPM_P2
2023/09/06 00:00:28;;;;;;;1.57;1.13;;;20.60;44.60;;;;;;5135788;27;20404;-52
2023/09/06 00:02:55;;;;;;;2.03;1.53;;;20.60;44.50;;;;;;5135751;27;20929;-55
2023/09/06 00:05:21;;;;;;;2.67;1.87;;;20.60;44.80;;;;;;5135723;27;20404;-53
2023/09/06 00:07:47;;;;;;;1.30;0.80;;;20.50;44.90;;;;;;5135439;27;20459;-51
2023/09/06 00:10:14;;;;;;;1.20;0.70;;;20.40;44.90;;;;;;5135451;27;20167;-51
2023/09/06 00:12:40;;;;;;;1.60;0.90;;;20.40;45.00;;;;;;5135483;27;20171;-52
2023/09/06 00:15:08;;;;;;;1.00;0.50;;;20.40;45.00;;;;;;5135217;27;20404;-53
2023/09/06 00:17:37;;;;;;;2.03;0.93;;;20.40;44.80;;;;;;5135573;27;20457;-51
2023/09/06 00:20:23;;;;;;;3.10;2.37;;;20.40;44.80;;;;;;5134999;27;20778;-52
2023/09/06 00:23:00;;;;;;;1.20;0.63;;;20.40;44.60;;;;;;5135626;27;20388;-51
2023/09/06 00:25:27;;;;;;;1.10;0.60;;;20.40;44.50;;;;;;5135086;27;20456;-51
2023/09/06 00:27:55;;;;;;;1.77;1.33;;;20.40;44.60;;;;;;5135047;27;20459;-52
2023/09/06 00:30:21;;;;;;;2.23;0.80;;;20.30;44.50;;;;;;5135429;27;20400;-54
2023/09/06 00:32:52;;;;;;;2.00;1.10;;;20.30;44.70;;;;;;5135087;27;20524;-50
2023/09/06 00:35:25;;;;;;;1.63;0.90;;;20.20;44.70;;;;;;5134787;27;20656;-51
2023/09/06 00:37:51;;;;;;;1.30;0.90;;;20.20;44.80;;;;;;5134925;27;20423;-53
2023/09/06 00:40:18;;;;;;;1.37;0.83;;;20.10;45.00;;;;;;5134937;27;20411;-53
2023/09/06 00:42:53;;;;;;;1.60;0.87;;;20.10;45.00;;;;;;5134881;27;20751;-50
2023/09/06 00:45:21;;;;;;;1.67;1.17;;;20.10;45.10;;;;;;5134771;27;20415;-51
2023/09/06 00:47:53;;;;;;;1.10;0.50;;;20.10;44.90;;;;;;5134665;27;20456;-51
2023/09/06 00:50:20;;;;;;;4.07;1.52;;;20.10;45.10;;;;;;5134896;27;20381;-51
2023/09/06 00:52:46;;;;;;;1.30;0.90;;;20.00;45.10;;;;;;5134653;27;20171;-53
2023/09/06 00:55:12;;;;;;;1.30;0.80;;;20.00;45.20;;;;;;5134792;27;20415;-51
2023/09/06 00:57:40;;;;;;;1.93;1.73;;;20.00;45.40;;;;;;5134694;27;20436;-53
2023/09/06 01:00:18;;;;;;;1.50;0.82;;;20.00;45.40;;;;;;5134714;27;20751;-52
2023/09/06 01:02:45;;;;;;;1.90;0.95;;;20.00;45.30;;;;;;5134886;27;20532;-51
2023/09/06 01:05:11;;;;;;;1.58;0.95;;;19.90;45.20;;;;;;5134251;27;20663;-51
2023/09/06 01:07:38;;;;;;;1.20;0.70;;;19.90;45.30;;;;;;5134343;27;20241;-53
2023/09/06 01:10:05;;;;;;;1.50;1.07;;;19.90;45.20;;;;;;5134451;27;20190;-53
2023/09/06 01:12:34;;;;;;;2.43;1.33;;;19.90;45.20;;;;;;5134495;27;20424;-51
2023/09/06 01:15:03;;;;;;;1.63;0.93;;;19.90;45.10;;;;;;5134101;27;20491;-52
2023/09/06 01:17:30;;;;;;;2.23;1.33;;;19.90;45.10;;;;;;5134129;27;20466;-52
2023/09/06 01:20:09;;;;;;;2.67;1.27;;;19.80;45.00;;;;;;5134270;27;20448;-51
2023/09/06 01:22:41;;;;;;;4.15;1.40;;;19.80;45.10;;;;;;5134457;27;20436;-53
2023/09/06 01:25:08;;;;;;;1.70;1.20;;;19.80;45.20;;;;;;5134033;27;20221;-51
2023/09/06 01:27:35;;;;;;;1.20;0.70;;;19.80;45.20;;;;;;5133983;27;20448;-50
2023/09/06 01:30:01;;;;;;;1.50;1.03;;;19.80;45.30;;;;;;5134226;27;20451;-55
2023/09/06 01:32:27;;;;;;;1.95;1.17;;;19.70;45.20;;;;;;5133226;27;20396;-54
2023/09/06 01:34:54;;;;;;;1.63;1.00;;;19.70;45.40;;;;;;5133765;27;20552;-50
2023/09/06 01:37:23;;;;;;;2.35;1.10;;;19.60;45.40;;;;;;5133926;27;20202;-53
2023/09/06 01:39:49;;;;;;;1.30;0.93;;;19.60;45.30;;;;;;5133843;27;20296;-51
2023/09/06 01:42:15;;;;;;;1.30;0.80;;;19.60;45.20;;;;;;5133826;27;20748;-53
2023/09/06 01:44:40;;;;;;;2.07;1.53;;;19.70;45.30;;;;;;5133476;27;20270;-53
2023/09/06 01:47:06;;;;;;;1.40;1.03;;;19.60;45.10;;;;;;5133771;27;20202;-49
2023/09/06 01:49:32;;;;;;;1.75;1.00;;;19.60;45.10;;;;;;5133615;27;20666;-53
2023/09/06 01:52:00;;;;;;;2.00;1.20;;;19.60;45.00;;;;;;5133516;27;20171;-54
2023/09/06 01:54:26;;;;;;;2.20;1.75;;;19.60;45.80;;;;;;5133439;27;20174;-49
2023/09/06 01:56:52;;;;;;;1.70;1.37;;;19.60;45.00;;;;;;5132203;27;20200;-53
2023/09/06 01:59:18;;;;;;;1.40;0.87;;;19.50;45.00;;;;;;5133430;27;20170;-52
2023/09/06 02:01:43;;;;;;;2.30;1.70;;;19.50;45.10;;;;;;5133533;27;20261;-51
2023/09/06 02:04:09;;;;;;;2.07;0.80;;;19.40;45.10;;;;;;5133356;27;20170;-53
2023/09/06 02:06:35;;;;;;;1.20;0.80;;;19.40;45.20;;;;;;5133363;27;20202;-50
2023/09/06 02:09:01;;;;;;;1.57;1.27;;;20.00;45.60;;;;;;5133412;27;20170;-50
2023/09/06 02:11:26;;;;;;;2.03;1.00;;;19.30;45.40;;;;;;5133273;27;20166;-53
2023/09/06 02:13:52;;;;;;;1.30;1.00;;;19.30;45.40;;;;;;5133176;27;20186;-52
2023/09/06 02:16:19;;;;;;;2.10;1.10;;;19.30;45.40;;;;;;5133061;27;20198;-52
2023/09/06 02:18:45;;;;;;;1.95;1.48;;;19.30;45.60;;;;;;5133461;27;20420;-55
2023/09/06 02:21:10;;;;;;;1.40;0.60;;;19.30;45.50;;;;;;5133261;27;20197;-50
2023/09/06 02:23:36;;;;;;;1.50;1.40;;;19.20;45.30;;;;;;5133223;27;20679;-52
2023/09/06 02:26:03;;;;;;;1.27;0.70;;;19.20;45.40;;;;;;5131572;27;20537;-53
2023/09/06 02:28:28;;;;;;;1.40;1.02;;;19.20;45.40;;;;;;5132940;27;20789;-50
2023/09/06 02:30:54;;;;;;;1.23;0.87;;;19.20;45.60;;;;;;5133258;27;20173;-51
2023/09/06 02:33:20;;;;;;;1.33;0.87;;;19.20;45.80;;;;;;5133227;27;20404;-55
2023/09/06 02:35:46;;;;;;;2.23;2.03;;;19.10;45.90;;;;;;5132571;27;20182;-54
2023/09/06 02:38:13;;;;;;;1.50;1.02;;;19.00;45.80;;;;;;5132925;27;20198;-50
2023/09/06 02:40:42;;;;;;;2.40;1.23;;;19.10;45.80;;;;;;5132967;27;20660;-54
2023/09/06 02:43:10;;;;;;;1.10;0.70;;;19.10;45.50;;;;;;5133634;27;20188;-51
2023/09/06 02:45:36;;;;;;;1.25;0.90;;;19.10;45.50;;;;;;5137302;27;20182;-51
2023/09/06 02:48:15;;;;;;;1.40;0.95;;;19.20;45.40;;;;;;5137031;27;20216;-53
2023/09/06 02:50:41;;;;;;;2.45;1.35;;;19.10;45.20;;;;;;5137064;27;20587;-50
2023/09/06 02:53:19;;;;;;;1.10;0.60;;;19.10;45.40;;;;;;5137192;27;20167;-52
2023/09/06 02:55:47;;;;;;;1.20;0.70;;;19.00;45.30;;;;;;5137127;27;20555;-54
2023/09/06 02:58:15;;;;;;;2.00;1.45;;;19.00;45.40;;;;;;5136880;27;20668;-50
2023/09/06 03:00:43;;;;;;;1.15;0.65;;;19.00;45.40;;;;;;5137184;27;20223;-53
2023/09/06 03:03:10;;;;;;;1.38;0.85;;;19.00;45.60;;;;;;5137188;27;20261;-50
2023/09/06 03:05:41;;;;;;;2.15;1.00;;;19.00;45.60;;;;;;5136885;27;20179;-50
2023/09/06 03:08:08;;;;;;;1.80;1.25;;;19.00;45.60;;;;;;5136602;27;20220;-50
2023/09/06 03:10:34;;;;;;;2.40;0.82;;;19.00;45.50;;;;;;5136750;27;20165;-50
2023/09/06 03:13:00;;;;;;;2.03;0.85;;;19.00;45.40;;;;;;5136624;27;20663;-52
2023/09/06 03:15:28;;;;;;;2.67;1.20;;;19.00;45.30;;;;;;5136503;27;20159;-52
2023/09/06 03:18:01;;;;;;;1.67;0.85;;;19.00;45.30;;;;;;5136582;27;20430;-50
2023/09/06 03:23:01;;;;;;;1.00;0.50;;;19.00;45.40;;;;;;5136857;27;20171;-53
2023/09/06 03:25:28;;;;;;;1.20;0.85;;;19.00;45.30;;;;;;5136315;27;20257;-50
2023/09/06 03:28:02;;;;;;;1.25;0.88;;;18.90;45.30;;;;;;5136423;27;20206;-53
2023/09/06 03:30:30;;;;;;;1.67;1.15;;;18.90;45.30;;;;;;5136431;27;20179;-50
2023/09/06 03:32:57;;;;;;;1.20;0.77;;;18.90;45.40;;;;;;5134926;27;20181;-55
2023/09/06 03:35:23;;;;;;;2.05;1.20;;;18.90;45.40;;;;;;5136063;27;20195;-53
2023/09/06 03:37:52;;;;;;;1.10;0.73;;;18.80;45.30;;;;;;5136164;27;20194;-51
2023/09/06 03:40:25;;;;;;;1.63;0.90;;;18.80;45.50;;;;;;5136511;27;20219;-50
2023/09/06 03:42:54;;;;;;;1.60;0.88;;;18.80;45.40;;;;;;5136298;27;20186;-53
2023/09/06 03:45:24;;;;;;;1.67;0.95;;;18.80;45.30;;;;;;5135958;27;20205;-52
2023/09/06 03:47:54;;;;;;;1.10;0.68;;;18.80;45.40;;;;;;5134589;27;20210;-53
2023/09/06 03:50:21;;;;;;;1.10;0.63;;;18.70;45.50;;;;;;5135906;27;20670;-50
2023/09/06 03:52:48;;;;;;;1.08;0.52;;;18.70;45.70;;;;;;5136277;27;20297;-53
2023/09/06 03:55:16;;;;;;;1.38;0.73;;;18.60;45.70;;;;;;5134603;27;20215;-55
2023/09/06 03:57:42;;;;;;;2.00;1.13;;;18.70;45.70;;;;;;5136029;27;20195;-49
2023/09/06 04:00:24;;;;;;;1.30;0.80;;;18.70;45.60;;;;;;5135805;27;20696;-53
2023/09/06 04:02:52;;;;;;;4.65;1.75;;;18.70;45.50;;;;;;5135745;27;20385;-52
2023/09/06 04:05:22;;;;;;;1.33;1.05;;;18.70;45.50;;;;;;5135464;27;20171;-51
2023/09/06 04:07:49;;;;;;;1.30;0.70;;;18.60;45.50;;;;;;5135558;27;20234;-52
2023/09/06 04:10:21;;;;;;;1.40;1.02;;;18.60;45.60;;;;;;5136349;27;20201;-53
2023/09/06 04:12:48;;;;;;;1.95;1.55;;;18.60;45.50;;;;;;5135845;27;20151;-51
2023/09/06 04:15:14;;;;;;;1.30;0.90;;;18.60;45.70;;;;;;5135512;27;20227;-53
2023/09/06 04:17:40;;;;;;;2.13;1.03;;;18.60;46.00;;;;;;5135391;27;20194;-52
2023/09/06 04:20:20;;;;;;;1.92;1.45;;;18.50;45.80;;;;;;5135425;27;20585;-50
2023/09/06 04:22:51;;;;;;;1.20;1.10;;;18.60;45.90;;;;;;5135620;27;20173;-54
2023/09/06 04:25:17;;;;;;;2.20;1.33;;;18.60;45.70;;;;;;5135375;27;20169;-54
2023/09/06 04:27:46;;;;;;;1.20;0.50;;;18.60;45.60;;;;;;5135101;27;20217;-52
2023/09/06 04:30:15;;;;;;;1.30;0.73;;;18.60;45.60;;;;;;5135377;27;20171;-51
2023/09/06 04:32:44;;;;;;;2.10;1.90;;;18.60;45.50;;;;;;5135367;27;20182;-56
2023/09/06 04:35:11;;;;;;;1.67;1.13;;;18.60;45.50;;;;;;5134809;27;20197;-52
2023/09/06 04:37:38;;;;;;;1.90;0.80;;;18.60;45.50;;;;;;5134971;27;20194;-50
2023/09/06 04:40:08;;;;;;;1.30;0.82;;;18.60;45.50;;;;;;5135323;27;20174;-55
2023/09/06 04:42:33;;;;;;;1.42;1.00;;;18.50;45.40;;;;;;5135034;27;20170;-55
2023/09/06 04:44:59;;;;;;;1.30;0.90;;;18.50;45.50;;;;;;5134668;27;20577;-50
2023/09/06 04:47:25;;;;;;;1.27;0.80;;;18.50;45.40;;;;;;5134729;27;20267;-56
2023/09/06 04:49:50;;;;;;;1.27;0.73;;;18.40;45.60;;;;;;5134808;27;20169;-57
2023/09/06 04:52:16;;;;;;;1.40;1.20;;;18.40;45.70;;;;;;5135310;27;20287;-52
2023/09/06 04:54:43;;;;;;;1.63;1.53;;;18.40;45.80;;;;;;5134561;27;20189;-52
2023/09/06 04:57:09;;;;;;;3.78;0.70;;;18.40;45.70;;;;;;5134886;27;20198;-54
2023/09/06 04:59:37;;;;;;;1.43;1.10;;;18.40;46.00;;;;;;5134597;27;20173;-52
2023/09/06 05:02:03;;;;;;;2.08;1.55;;;18.50;46.00;;;;;;5133315;27;20175;-53
2023/09/06 05:04:30;;;;;;;1.20;0.88;;;18.50;46.00;;;;;;5133008;27;20178;-54
2023/09/06 05:06:56;;;;;;;1.80;1.35;;;18.60;46.00;;;;;;5134095;27;20889;-53
2023/09/06 05:09:22;;;;;;;1.97;1.47;;;18.70;46.30;;;;;;5134489;27;20189;-52
2023/09/06 05:11:48;;;;;;;1.10;0.70;;;18.70;46.30;;;;;;5134337;27;20167;-50
2023/09/06 05:14:13;;;;;;;1.57;1.07;;;18.80;46.50;;;;;;5134177;27;20249;-55
2023/09/06 05:16:40;;;;;;;1.27;0.97;;;18.80;46.40;;;;;;5134135;27;20431;-56
2023/09/06 05:19:06;;;;;;;2.22;0.75;;;18.80;46.30;;;;;;5133007;27;20198;-50
2023/09/06 05:21:32;;;;;;;1.20;0.80;;;18.90;46.50;;;;;;5134158;27;20698;-56
2023/09/06 05:23:58;;;;;;;1.73;1.40;;;19.00;46.50;;;;;;5134169;27;20454;-50
2023/09/06 05:26:23;;;;;;;2.30;1.80;;;19.10;46.40;;;;;;5133997;27;20205;-52
2023/09/06 05:28:49;;;;;;;1.63;1.20;;;19.20;46.30;;;;;;5134010;27;20179;-57
2023/09/06 05:31:16;;;;;;;1.67;0.80;;;19.30;46.30;;;;;;5134025;27;20351;-57
2023/09/06 05:33:46;;;;;;;1.83;0.93;;;19.40;46.40;;;;;;5133997;27;20242;-51
2023/09/06 05:36:12;;;;;;;1.55;1.40;;;19.40;46.50;;;;;;5133649;27;20178;-53
2023/09/06 05:38:38;;;;;;;1.50;1.00;;;19.50;46.40;;;;;;5133850;27;20736;-52
2023/09/06 05:41:04;;;;;;;2.28;1.40;;;19.60;46.30;;;;;;5134086;27;20190;-51
2023/09/06 05:43:30;;;;;;;2.60;2.10;;;19.70;46.40;;;;;;5133820;27;20219;-53
2023/09/06 05:45:56;;;;;;;1.47;1.10;;;19.80;46.40;;;;;;5133486;27;20275;-51
2023/09/06 05:48:22;;;;;;;2.23;1.10;;;19.80;46.40;;;;;;5133467;27;20206;-53
2023/09/06 05:50:48;;;;;;;1.20;0.90;;;19.90;46.30;;;;;;5133689;27;20435;-53
2023/09/06 05:53:13;;;;;;;1.23;0.70;;;20.00;46.30;;;;;;5133660;27;20162;-51
2023/09/06 05:55:39;;;;;;;1.30;1.10;;;20.10;46.50;;;;;;5133329;27;20170;-57
2023/09/06 05:58:05;;;;;;;2.17;0.90;;;20.10;46.40;;;;;;5133452;27;20642;-54
2023/09/06 06:00:32;;;;;;;1.30;0.67;;;20.30;46.40;;;;;;5133483;27;20181;-49
2023/09/06 06:02:59;;;;;;;1.20;0.63;;;20.30;46.30;;;;;;5133331;27;20479;-54
2023/09/06 06:05:25;;;;;;;1.52;1.05;;;20.40;46.30;;;;;;5133164;27;20187;-52
2023/09/06 06:07:51;;;;;;;1.40;0.90;;;20.50;46.20;;;;;;5133239;27;20210;-49
2023/09/06 06:10:17;;;;;;;1.30;0.70;;;20.60;46.20;;;;;;5133294;27;20636;-53
2023/09/06 06:12:43;;;;;;;1.83;1.07;;;20.70;46.20;;;;;;5133276;27;20182;-54
2023/09/06 06:15:13;;;;;;;1.10;0.70;;;20.70;46.10;;;;;;5132987;27;20457;-51
2023/09/06 06:17:39;;;;;;;1.37;1.13;;;20.90;46.10;;;;;;5131247;27;20664;-51
2023/09/06 06:20:07;;;;;;;1.42;1.13;;;21.00;46.10;;;;;;5133230;27;20487;-52
2023/09/06 06:22:37;;;;;;;3.10;1.63;;;21.00;46.00;;;;;;5133101;27;20644;-50
2023/09/06 06:25:05;;;;;;;1.38;1.00;;;21.10;45.70;;;;;;5133234;27;20772;-51
2023/09/06 06:27:31;;;;;;;1.70;0.93;;;21.20;45.80;;;;;;5132996;27;20205;-56
2023/09/06 06:29:57;;;;;;;1.50;0.95;;;21.40;45.70;;;;;;5133075;27;20173;-50
2023/09/06 06:32:23;;;;;;;1.53;0.77;;;21.50;45.70;;;;;;5133044;27;20174;-51
2023/09/06 06:34:51;;;;;;;1.40;0.93;;;21.60;45.60;;;;;;5132678;27;20182;-55
2023/09/06 06:37:17;;;;;;;3.30;2.50;;;21.60;45.60;;;;;;5133248;27;20560;-50
2023/09/06 06:39:43;;;;;;;1.50;1.00;;;21.70;45.50;;;;;;5132945;27;20408;-50
2023/09/06 06:42:08;;;;;;;1.10;0.60;;;21.80;45.40;;;;;;5132968;27;20396;-56
2023/09/06 06:44:34;;;;;;;3.07;1.00;;;21.80;45.40;;;;;;5132531;28;20413;-51
2023/09/06 06:47:00;;;;;;;1.53;1.30;;;21.90;45.20;;;;;;5132962;28;20206;-54
2023/09/06 06:49:27;;;;;;;1.57;0.97;;;21.80;44.90;;;;;;5133175;27;20251;-50
2023/09/06 06:51:52;;;;;;;2.80;1.57;;;21.90;45.10;;;;;;5132834;27;20408;-56
2023/09/06 06:54:19;;;;;;;1.57;1.03;;;21.90;45.50;;;;;;5132709;28;20483;-51
2023/09/06 06:56:45;;;;;;;1.73;0.80;;;22.00;45.20;;;;;;5132710;28;20180;-50
2023/09/06 06:59:11;;;;;;;1.10;0.60;;;22.10;45.40;;;;;;5132668;28;20404;-55
2023/09/06 07:01:37;;;;;;;1.10;0.67;;;22.20;45.60;;;;;;5131482;28;20175;-53
2023/09/06 07:04:05;;;;;;;1.53;1.00;;;22.30;45.50;;;;;;5132929;28;20411;-50
2023/09/06 07:06:32;;;;;;;1.23;0.83;;;22.50;45.50;;;;;;5132752;27;20472;-57
2023/09/06 07:08:58;;;;;;;2.20;1.97;;;22.60;45.20;;;;;;5132885;27;20431;-55
2023/09/06 07:11:24;;;;;;;2.67;1.10;;;22.80;45.30;;;;;;5132896;27;20398;-51
2023/09/06 07:13:50;;;;;;;1.20;0.60;;;22.90;44.70;;;;;;5132486;27;21076;-51
2023/09/06 07:16:19;;;;;;;1.77;1.20;;;22.90;44.30;;;;;;5132635;27;20461;-57
2023/09/06 07:18:46;;;;;;;1.20;0.70;;;23.00;44.50;;;;;;5132510;27;20428;-55
2023/09/06 07:21:13;;;;;;;1.83;1.27;;;23.00;44.70;;;;;;5132515;27;20412;-52
2023/09/06 07:23:39;;;;;;;1.47;0.90;;;23.20;44.70;;;;;;5132595;28;20458;-55
2023/09/06 07:26:05;;;;;;;1.90;1.47;;;23.30;45.00;;;;;;5132337;27;20953;-51
2023/09/06 07:28:45;;;;;;;1.27;0.73;;;23.40;45.20;;;;;;5131037;28;20992;-53
2023/09/06 07:31:11;;;;;;;1.30;1.10;;;23.60;45.30;;;;;;5136401;27;20403;-51
2023/09/06 07:33:38;;;;;;;1.20;0.60;;;23.70;45.00;;;;;;5136411;27;20408;-52
2023/09/06 07:36:05;;;;;;;1.90;0.97;;;23.90;44.70;;;;;;5136057;27;21038;-54
2023/09/06 07:38:31;;;;;;;1.70;1.17;;;24.00;44.70;;;;;;5136448;27;20416;-58
2023/09/06 07:41:05;;;;;;;2.30;1.47;;;24.10;44.50;;;;;;5136152;27;20766;-51
2023/09/06 07:43:32;;;;;;;2.60;1.13;;;24.30;44.70;;;;;;5136085;27;20960;-55
2023/09/06 07:45:59;;;;;;;1.73;0.83;;;24.40;44.30;;;;;;5136288;27;20765;-51
2023/09/06 07:48:29;;;;;;;2.17;1.00;;;24.50;42.80;;;;;;5136008;27;20845;-55
2023/09/06 07:50:59;;;;;;;1.90;1.10;;;24.50;42.40;;;;;;5136010;27;20436;-50
2023/09/06 07:53:26;;;;;;;1.87;1.00;;;24.50;42.50;;;;;;5134689;27;20415;-53
2023/09/06 07:55:52;;;;;;;2.10;1.43;;;24.40;42.10;;;;;;5135924;27;20469;-54
2023/09/06 07:58:19;;;;;;;1.97;1.57;;;24.30;40.00;;;;;;5135764;27;20456;-50
2023/09/06 08:00:45;;;;;;;1.67;1.57;;;24.40;42.10;;;;;;5135928;27;20413;-53
2023/09/06 08:03:11;;;;;;;1.60;1.00;;;24.50;42.90;;;;;;5135723;27;20490;-52
2023/09/06 08:05:37;;;;;;;1.37;0.83;;;24.60;41.50;;;;;;5135574;27;20487;-56
2023/09/06 08:08:05;;;;;;;1.20;0.73;;;24.60;41.20;;;;;;5135754;27;20535;-52
2023/09/06 08:10:31;;;;;;;1.43;0.90;;;24.70;41.00;;;;;;5135849;27;20395;-51
2023/09/06 08:12:57;;;;;;;2.03;1.27;;;24.80;42.10;;;;;;5135576;27;20400;-52
2023/09/06 08:15:23;;;;;;;2.50;1.10;;;25.00;42.30;;;;;;5135298;27;20469;-55
2023/09/06 08:17:49;;;;;;;1.30;0.87;;;25.10;42.50;;;;;;5135473;27;20423;-51
2023/09/06 08:20:16;;;;;;;1.30;0.90;;;25.20;40.80;;;;;;5135505;27;20171;-52
2023/09/06 08:22:42;;;;;;;2.07;1.07;;;25.30;41.30;;;;;;5135274;27;20400;-53
2023/09/06 08:25:08;;;;;;;2.57;1.70;;;25.50;41.60;;;;;;5135266;27;20491;-55
2023/09/06 08:27:34;;;;;;;2.13;0.70;;;25.60;41.60;;;;;;5135128;27;20452;-51
2023/09/06 08:30:00;;;;;;;1.80;1.20;;;25.70;40.20;;;;;;5135289;27;20791;-51
2023/09/06 08:32:26;;;;;;;1.93;1.20;;;25.80;40.80;;;;;;5135194;27;20171;-55
2023/09/06 08:34:51;;;;;;;3.00;1.10;;;25.90;40.70;;;;;;5134933;27;20174;-51
2023/09/06 08:37:17;;;;;;;1.40;0.87;;;26.00;40.30;;;;;;5135392;27;20198;-51
2023/09/06 08:39:43;;;;;;;1.90;0.80;;;26.10;39.70;;;;;;5135100;27;20683;-55
2023/09/06 08:42:10;;;;;;;1.50;0.70;;;26.20;38.90;;;;;;5134549;27;20212;-51
2023/09/06 08:44:37;;;;;;;1.40;1.00;;;26.30;39.40;;;;;;5134774;27;20400;-51
2023/09/06 08:47:08;;;;;;;2.77;0.90;;;26.40;40.20;;;;;;5135106;27;20660;-56
2023/09/06 08:49:36;;;;;;;1.30;0.77;;;26.40;38.60;;;;;;5134923;27;20377;-56
2023/09/06 08:52:03;;;;;;;3.57;1.30;;;26.60;39.20;;;;;;5135069;27;20454;-52
2023/09/06 08:54:29;;;;;;;1.63;0.73;;;26.70;39.50;;;;;;5134796;27;20408;-52
2023/09/06 08:56:57;;;;;;;1.97;1.37;;;26.80;39.10;;;;;;5134746;27;20761;-54
2023/09/06 08:59:24;;;;;;;1.40;1.10;;;26.90;38.90;;;;;;5135090;27;20404;-50
2023/09/06 09:01:50;;;;;;;1.20;0.70;;;27.00;39.90;;;;;;5134603;27;20448;-51
2023/09/06 09:04:16;;;;;;;1.60;1.00;;;27.10;35.80;;;;;;5134335;27;20408;-52
2023/09/06 09:06:44;;;;;;;1.53;0.93;;;27.10;37.40;;;;;;5134357;27;20560;-55
2023/09/06 09:09:18;;;;;;;1.87;0.90;;;27.20;37.80;;;;;;5134580;27;20210;-51
2023/09/06 09:11:51;;;;;;;1.20;0.63;;;27.30;37.80;;;;;;5134439;27;20423;-56
2023/09/06 09:14:26;;;;;;;1.50;0.87;;;27.40;38.30;;;;;;5134203;27;21014;-52
2023/09/06 09:16:56;;;;;;;1.40;1.23;;;27.40;35.70;;;;;;5134223;27;20451;-52
2023/09/06 09:19:22;;;;;;;1.60;0.70;;;27.50;37.40;;;;;;5134544;27;20408;-56
2023/09/06 09:21:52;;;;;;;1.30;0.90;;;27.70;36.80;;;;;;5134492;27;20404;-50
2023/09/06 09:24:30;;;;;;;1.10;0.60;;;27.80;37.30;;;;;;5134111;27;20400;-51
2023/09/06 09:26:58;;;;;;;4.23;1.17;;;27.90;37.70;;;;;;5134210;27;20679;-51
2023/09/06 09:29:25;;;;;;;1.30;0.70;;;28.00;37.60;;;;;;5134052;27;20400;-52
2023/09/06 09:31:51;;;;;;;1.50;0.67;;;28.10;37.40;;;;;;5134242;27;20762;-55
2023/09/06 09:34:17;;;;;;;1.27;0.80;;;28.10;35.40;;;;;;5133813;27;20400;-50
2023/09/06 09:36:50;;;;;;;1.60;0.87;;;28.20;36.60;;;;;;5134217;27;20186;-54
2023/09/06 09:39:18;;;;;;;1.60;0.70;;;28.30;35.80;;;;;;5134211;27;20468;-52
2023/09/06 09:41:44;;;;;;;1.70;1.30;;;28.30;36.20;;;;;;5133630;27;20978;-52
2023/09/06 09:44:14;;;;;;;1.83;1.10;;;28.40;36.00;;;;;;5133607;27;20778;-52
2023/09/06 09:46:43;;;;;;;2.30;1.77;;;28.50;34.70;;;;;;5133596;27;20999;-55
2023/09/06 09:49:11;;;;;;;1.67;1.13;;;28.50;35.70;;;;;;5133846;27;20461;-51
2023/09/06 09:51:38;;;;;;;1.77;1.03;;;28.70;35.90;;;;;;5133747;27;20403;-52
2023/09/06 09:54:04;;;;;;;2.37;1.20;;;28.70;36.30;;;;;;5132666;27;20412;-54
2023/09/06 09:56:37;;;;;;;1.60;1.10;;;28.80;33.70;;;;;;5133432;27;20408;-52
2023/09/06 09:59:03;;;;;;;1.40;1.00;;;28.80;32.80;;;;;;5133591;27;20393;-51
2023/09/06 10:01:32;;;;;;;1.67;0.63;;;28.80;33.90;;;;;;5133483;27;20932;-57
2023/09/06 10:04:05;;;;;;;1.30;0.77;;;28.90;34.40;;;;;;5133502;27;20458;-51
2023/09/06 10:06:32;;;;;;;1.40;0.70;;;29.00;34.80;;;;;;5133314;27;20404;-53
2023/09/06 10:09:00;;;;;;;1.20;0.80;;;29.10;35.00;;;;;;5133290;27;20548;-56
2023/09/06 10:11:28;;;;;;;1.20;0.67;;;29.10;34.70;;;;;;5133282;27;20906;-52
2023/09/06 10:13:54;;;;;;;1.63;1.00;;;29.20;34.80;;;;;;5133290;27;20836;-56
2023/09/06 10:16:20;;;;;;;1.13;0.63;;;29.30;35.30;;;;;;5133387;27;20424;-52
2023/09/06 10:18:47;;;;;;;1.60;0.83;;;29.40;35.10;;;;;;5133073;27;21031;-55
2023/09/06 10:21:14;;;;;;;1.97;1.00;;;29.40;35.10;;;;;;5133386;27;20396;-52
2023/09/06 10:23:41;;;;;;;1.20;0.60;;;29.50;34.20;;;;;;5133341;27;20755;-50
2023/09/06 10:26:07;;;;;;;1.67;0.70;;;29.60;34.40;;;;;;5132892;27;20432;-52
2023/09/06 10:31:07;;;;;;;1.70;1.00;;;29.60;33.60;;;;;;5080475;28;20481;-58
2023/09/06 10:33:36;;;;;;;1.10;0.53;;;29.70;33.90;;;;;;5092342;28;20440;-55
2023/09/06 10:36:15;;;;;;;2.80;1.43;;;29.80;33.60;;;;;;5091924;28;20429;-58
2023/09/06 10:39:14;;;;;;;1.20;0.60;;;29.80;33.60;;;;;;5090192;28;20948;-56
2023/09/06 10:42:11;;;;;;;2.17;1.00;;;29.90;33.50;;;;;;5071820;28;20391;-58
2023/09/06 10:44:55;;;;;;;1.43;0.73;;;30.00;33.90;;;;;;5071658;28;20403;-58
2023/09/06 10:47:32;;;;;;;1.73;1.10;;;30.10;33.50;;;;;;5071706;28;20443;-60
2023/09/06 10:50:12;;;;;;;1.17;0.60;;;30.10;31.90;;;;;;5071690;28;20965;-55
2023/09/06 10:52:43;;;;;;;1.40;0.80;;;30.10;32.60;;;;;;5071794;28;20908;-60
2023/09/06 10:55:26;;;;;;;1.17;0.60;;;30.20;32.10;;;;;;5071563;28;20925;-56
2023/09/06 10:57:59;;;;;;;1.67;1.00;;;30.20;32.40;;;;;;5071682;28;20927;-57
2023/09/06 11:00:27;;;;;;;2.23;1.00;;;30.30;32.70;;;;;;5071728;28;20420;-55
2023/09/06 11:03:08;;;;;;;1.97;1.10;;;30.40;32.10;;;;;;5071679;28;20742;-54
2023/09/06 11:05:39;;;;;;;1.30;0.80;;;30.40;30.00;;;;;;5074718;28;20426;-56
2023/09/06 11:08:08;;;;;;;1.30;0.60;;;30.40;27.80;;;;;;5075574;28;20431;-53
2023/09/06 11:10:35;;;;;;;2.60;0.70;;;30.40;30.60;;;;;;5075456;28;20440;-57
2023/09/06 11:13:10;;;;;;;1.30;0.70;;;30.50;29.10;;;;;;5075728;28;20411;-56
2023/09/06 11:15:37;;;;;;;1.17;0.57;;;30.60;30.20;;;;;;5075361;28;20757;-54
2023/09/06 11:18:03;;;;;;;2.40;0.70;;;30.60;31.30;;;;;;5075476;28;20432;-57
2023/09/06 11:20:33;;;;;;;1.30;0.70;;;30.70;31.00;;;;;;5075404;28;20441;-53
2023/09/06 11:23:00;;;;;;;1.10;0.63;;;30.90;31.10;;;;;;5075286;28;20426;-59
2023/09/06 11:25:29;;;;;;;1.50;1.10;;;30.90;30.60;;;;;;5075348;28;20755;-57
2023/09/06 11:27:59;;;;;;;1.20;0.50;;;30.90;30.30;;;;;;5075218;28;20453;-54
2023/09/06 11:30:26;;;;;;;1.20;0.63;;;30.90;30.30;;;;;;5075159;28;20449;-54
2023/09/06 11:32:56;;;;;;;1.63;0.50;;;31.00;30.80;;;;;;5075217;28;20460;-56
2023/09/06 11:35:34;;;;;;;2.40;0.80;;;31.00;30.90;;;;;;5074815;28;20403;-52
2023/09/06 11:38:02;;;;;;;1.40;0.60;;;31.00;30.00;;;;;;5074997;28;20934;-55
2023/09/06 11:40:31;;;;;;;1.30;0.60;;;31.00;29.70;;;;;;5075005;28;20429;-57
2023/09/06 11:43:10;;;;;;;1.63;0.87;;;31.00;30.00;;;;;;5075069;28;20402;-53
2023/09/06 11:45:37;;;;;;;1.30;0.67;;;31.10;29.60;;;;;;5074794;28;20764;-54
2023/09/06 11:48:09;;;;;;;2.47;1.10;;;31.00;29.80;;;;;;5074706;28;20477;-56
2023/09/06 11:50:38;;;;;;;1.80;1.00;;;31.00;29.70;;;;;;5074999;28;20427;-59
2023/09/06 11:53:09;;;;;;;1.20;0.80;;;31.00;29.60;;;;;;5074985;28;20408;-52
2023/09/06 11:55:39;;;;;;;1.10;0.47;;;31.00;29.60;;;;;;5074572;28;20783;-52
2023/09/06 11:58:14;;;;;;;1.27;0.87;;;31.10;28.80;;;;;;5074936;28;20407;-58
2023/09/06 12:00:45;;;;;;;1.10;0.50;;;31.00;29.80;;;;;;5074702;28;20418;-57
2023/09/06 12:03:13;;;;;;;1.40;0.63;;;31.10;29.30;;;;;;5074914;28;20395;-54
2023/09/06 12:05:44;;;;;;;1.97;0.77;;;31.20;28.60;;;;;;5074502;28;20434;-57
2023/09/06 12:08:15;;;;;;;1.37;0.80;;;31.30;28.70;;;;;;5074399;28;20526;-54
2023/09/06 12:10:49;;;;;;;1.00;0.50;;;31.40;28.90;;;;;;5074372;28;20431;-55
2023/09/06 12:13:28;;;;;;;1.10;0.50;;;31.50;28.10;;;;;;5074431;28;20391;-57
2023/09/06 12:15:56;;;;;;;2.13;1.63;;;31.50;27.60;;;;;;5073224;28;20399;-54
2023/09/06 12:18:28;;;;;;;1.20;0.50;;;31.50;27.20;;;;;;5074636;28;20498;-56
2023/09/06 12:20:57;;;;;;;1.60;1.23;;;31.50;26.80;;;;;;5074339;28;20399;-58
2023/09/06 12:23:28;;;;;;;1.23;0.70;;;31.50;28.00;;;;;;5074178;28;20493;-56
2023/09/06 12:25:55;;;;;;;1.77;0.80;;;31.50;27.70;;;;;;5074038;28;20884;-53
2023/09/06 12:28:21;;;;;;;1.20;0.53;;;31.60;26.90;;;;;;5074263;28;20515;-58
2023/09/06 12:30:47;;;;;;;2.33;1.27;;;31.70;27.00;;;;;;5074010;28;20529;-55
2023/09/06 12:33:14;;;;;;;1.10;0.40;;;31.70;27.50;;;;;;5074331;28;20431;-53
2023/09/06 12:35:40;;;;;;;1.40;0.77;;;31.80;26.30;;;;;;5073766;28;20407;-57
2023/09/06 12:38:07;;;;;;;1.10;0.60;;;31.80;26.90;;;;;;5073925;28;20943;-54
2023/09/06 12:40:33;;;;;;;1.37;0.80;;;31.80;26.20;;;;;;5074075;28;20454;-54
2023/09/06 12:42:59;;;;;;;1.30;0.57;;;31.80;25.90;;;;;;5074157;28;20921;-57
2023/09/06 12:45:31;;;;;;;1.10;0.40;;;31.90;26.00;;;;;;5073796;28;20914;-54
2023/09/06 12:47:58;;;;;;;1.10;0.60;;;31.90;24.30;;;;;;5073752;28;20438;-56
2023/09/06 12:50:24;;;;;;;1.27;0.73;;;32.00;26.20;;;;;;5073636;28;20508;-55
2023/09/06 12:52:51;;;;;;;1.83;1.10;;;32.10;25.90;;;;;;5073831;28;20403;-57
2023/09/06 12:55:17;;;;;;;1.50;0.70;;;32.20;27.00;;;;;;5073697;28;20398;-54
2023/09/06 12:57:43;;;;;;;1.40;0.87;;;32.40;27.10;;;;;;5073596;28;20434;-54